首页
METAR-TAF:

METAR-TAF

机场 :

Muskrat Dam Lake, 安大略省, 加拿大

纬度: 53-26-29N, 经度: 091-45-46W, 海拔: 278米

当前天气观测

该预报发布于58分钟前的21:00 UTC
风速9节,风向南转西南,在南转南东西南之间变化
温度 22°C
湿度 60%
气压 997 hPa
能見度: 14.5公里
多云层高于11000英尺
多云层高于13000英尺
阴天层高于15000英尺
小雨

METAR: CZMD 242100Z AUTO 20009KT 160V220 9SM -RA BKN110 BKN130 OVC150 22/14 A2943 RMK PRESRR SLP972 DENSITY ALT 2500FT

时间: 16:58 (21:58 UTC)

预报

该预报发布于48分钟前的21:10 UTC
预报有效从24日的 21点(UTC)到 24日的 22点(UTC)
风速12节,风向南转西南
能見度: 10公里
少量云层高于5000英尺
多云层高于12000英尺
小阵雨
从 24日的 2130点(UTC)
风速13节,风向南转西南,有时为23节阵风
能見度: 10公里
多云层高于5000英尺
小阵雨
短暂存在
从 24日的 21点(UTC)到 24日的 22点(UTC)
风速22节,风向多变,有时为38节阵风
能見度: 4.0公里
多云层高于2000英尺, 积雨云.
阴天层高于4000英尺
雷暴, 雨, 轻雾

TAF: CZMD 242110Z 2421/2422 20012KT P6SM -SHRA FEW050 BKN120 FM242130 20013G23KT P6SM -SHRA BKN050 TEMPO 2421/2422 VRB22G38KT 2 1/2SM TSRA BR BKN020CB OVC040 RMK FCST BASED ON AUTO OBS. NXT FCST BY 251000Z

超过4000个机场的气象观测和天气预报(METAR&TAF报告)。

可查询的气象台以黄色和红色小点在地图上表示。

将鼠标移到小点上方,可查看气象台名称。

然后点击查看天气观测和预报。

如需切换地图:点击带黑十字的绿色按钮放大地图;点击带横线的绿色按钮缩小地图;或者点击绿色箭头查看邻近地区的地图。


METAR-TAF: